sensor_id;sensor_type;location;lat;lon;timestamp;pressure;altitude;pressure_sealevel;temperature;humidity
59104;BME280;51449;51.676;5.812;2023-02-11T00:01:07;103373.81;;;7.34;77.33
59104;BME280;51449;51.676;5.812;2023-02-11T00:03:30;103370.03;;;7.35;77.28
59104;BME280;51449;51.676;5.812;2023-02-11T00:06:00;103368.34;;;7.34;77.27
59104;BME280;51449;51.676;5.812;2023-02-11T00:08:24;103363.13;;;7.32;77.68
59104;BME280;51449;51.676;5.812;2023-02-11T00:10:50;103357.38;;;7.34;77.30
59104;BME280;51449;51.676;5.812;2023-02-11T00:13:13;103355.72;;;7.33;77.12
59104;BME280;51449;51.676;5.812;2023-02-11T00:15:35;103362.03;;;7.33;77.39
59104;BME280;51449;51.676;5.812;2023-02-11T00:17:57;103358.22;;;7.34;77.12
59104;BME280;51449;51.676;5.812;2023-02-11T00:20:19;103364.53;;;7.35;77.43
59104;BME280;51449;51.676;5.812;2023-02-11T00:22:41;103366.53;;;7.39;77.49
59104;BME280;51449;51.676;5.812;2023-02-11T00:25:04;103365.13;;;7.37;76.88
59104;BME280;51449;51.676;5.812;2023-02-11T00:27:25;103362.63;;;7.35;77.02
59104;BME280;51449;51.676;5.812;2023-02-11T00:29:48;103354.16;;;7.37;76.69
59104;BME280;51449;51.676;5.812;2023-02-11T00:32:09;103342.91;;;7.38;77.07
59104;BME280;51449;51.676;5.812;2023-02-11T00:34:32;103350.56;;;7.36;76.99
59104;BME280;51449;51.676;5.812;2023-02-11T00:36:55;103350.81;;;7.35;77.17
59104;BME280;51449;51.676;5.812;2023-02-11T00:39:17;103350.00;;;7.34;76.62
59104;BME280;51449;51.676;5.812;2023-02-11T00:41:39;103351.88;;;7.34;77.11
59104;BME280;51449;51.676;5.812;2023-02-11T00:44:01;103356.81;;;7.32;76.84
59104;BME280;51449;51.676;5.812;2023-02-11T00:46:23;103361.22;;;7.33;77.30
59104;BME280;51449;51.676;5.812;2023-02-11T00:48:45;103357.13;;;7.35;77.18
59104;BME280;51449;51.676;5.812;2023-02-11T00:51:07;103345.94;;;7.37;76.94
59104;BME280;51449;51.676;5.812;2023-02-11T00:53:30;103363.22;;;7.37;76.91
59104;BME280;51449;51.676;5.812;2023-02-11T00:55:52;103352.81;;;7.39;76.67
59104;BME280;51449;51.676;5.812;2023-02-11T00:58:13;103363.53;;;7.41;76.47
59104;BME280;51449;51.676;5.812;2023-02-11T01:00:35;103357.72;;;7.37;76.51
59104;BME280;51449;51.676;5.812;2023-02-11T01:02:57;103363.22;;;7.37;76.48
59104;BME280;51449;51.676;5.812;2023-02-11T01:05:19;103364.28;;;7.36;76.74
59104;BME280;51449;51.676;5.812;2023-02-11T01:07:42;103368.34;;;7.34;76.47
59104;BME280;51449;51.676;5.812;2023-02-11T01:10:03;103357.97;;;7.36;76.58
59104;BME280;51449;51.676;5.812;2023-02-11T01:12:25;103367.38;;;7.40;75.97
59104;BME280;51449;51.676;5.812;2023-02-11T01:14:47;103356.63;;;7.38;76.16
59104;BME280;51449;51.676;5.812;2023-02-11T01:17:11;103377.75;;;7.38;76.20
59104;BME280;51449;51.676;5.812;2023-02-11T01:19:33;103378.84;;;7.37;76.07
59104;BME280;51449;51.676;5.812;2023-02-11T01:21:54;103384.31;;;7.37;76.38
59104;BME280;51449;51.676;5.812;2023-02-11T01:24:16;103370.84;;;7.35;76.34
59104;BME280;51449;51.676;5.812;2023-02-11T01:26:38;103376.84;;;7.32;76.57
59104;BME280;51449;51.676;5.812;2023-02-11T01:28:59;103370.53;;;7.32;76.59
59104;BME280;51449;51.676;5.812;2023-02-11T01:31:21;103361.78;;;7.35;76.12
59104;BME280;51449;51.676;5.812;2023-02-11T01:33:43;103337.94;;;7.35;76.11
59104;BME280;51449;51.676;5.812;2023-02-11T01:36:05;103339.03;;;7.34;76.07
59104;BME280;51449;51.676;5.812;2023-02-11T01:38:28;103347.81;;;7.36;75.98
59104;BME280;51449;51.676;5.812;2023-02-11T01:40:57;103339.59;;;7.36;76.42
59104;BME280;51449;51.676;5.812;2023-02-11T01:43:25;103324.47;;;7.34;75.85
59104;BME280;51449;51.676;5.812;2023-02-11T01:46:32;103310.75;;;7.34;76.33
59104;BME280;51449;51.676;5.812;2023-02-11T01:48:58;103296.13;;;7.28;76.47
59104;BME280;51449;51.676;5.812;2023-02-11T01:51:29;103307.13;;;7.28;76.09
59104;BME280;51449;51.676;5.812;2023-02-11T01:53:57;103303.19;;;7.24;76.58
59104;BME280;51449;51.676;5.812;2023-02-11T01:56:43;103303.94;;;7.19;76.78
59104;BME280;51449;51.676;5.812;2023-02-11T01:59:40;103308.59;;;7.19;76.62
59104;BME280;51449;51.676;5.812;2023-02-11T02:02:11;103300.13;;;7.20;76.60
59104;BME280;51449;51.676;5.812;2023-02-11T02:04:43;103307.28;;;7.21;76.49
59104;BME280;51449;51.676;5.812;2023-02-11T02:07:21;103328.06;;;7.17;76.40
59104;BME280;51449;51.676;5.812;2023-02-11T02:10:02;103347.25;;;7.17;76.86
59104;BME280;51449;51.676;5.812;2023-02-11T02:12:29;103354.38;;;7.18;76.71
59104;BME280;51449;51.676;5.812;2023-02-11T02:14:51;103350.00;;;7.17;76.77
59104;BME280;51449;51.676;5.812;2023-02-11T02:17:37;103329.22;;;7.21;76.65
59104;BME280;51449;51.676;5.812;2023-02-11T02:32:09;103306.06;;;7.12;77.07
59104;BME280;51449;51.676;5.812;2023-02-11T02:34:58;103307.63;;;7.08;77.09
59104;BME280;51449;51.676;5.812;2023-02-11T02:37:51;103301.91;;;7.10;77.11
59104;BME280;51449;51.676;5.812;2023-02-11T02:40:26;103303.78;;;7.09;77.63
59104;BME280;51449;51.676;5.812;2023-02-11T02:42:53;103304.06;;;7.07;76.90
59104;BME280;51449;51.676;5.812;2023-02-11T02:45:18;103326.22;;;7.06;77.29
59104;BME280;51449;51.676;5.812;2023-02-11T02:47:40;103321.25;;;7.03;76.99
59104;BME280;51449;51.676;5.812;2023-02-11T02:50:03;103320.16;;;7.04;77.30
59104;BME280;51449;51.676;5.812;2023-02-11T02:52:35;103328.97;;;7.06;77.50
59104;BME280;51449;51.676;5.812;2023-02-11T02:55:19;103329.78;;;7.06;76.86
59104;BME280;51449;51.676;5.812;2023-02-11T02:58:51;103325.13;;;7.07;77.35
59104;BME280;51449;51.676;5.812;2023-02-11T03:01:18;103318.34;;;7.10;77.53
59104;BME280;51449;51.676;5.812;2023-02-11T03:04:42;103309.78;;;7.06;77.28
59104;BME280;51449;51.676;5.812;2023-02-11T03:07:11;103300.72;;;7.05;77.35
59104;BME280;51449;51.676;5.812;2023-02-11T03:09:48;103299.31;;;7.03;77.36
59104;BME280;51449;51.676;5.812;2023-02-11T03:12:16;103301.72;;;6.99;77.41
59104;BME280;51449;51.676;5.812;2023-02-11T03:14:39;103298.38;;;6.97;77.66
59104;BME280;51449;51.676;5.812;2023-02-11T03:17:03;103307.09;;;6.94;77.71
59104;BME280;51449;51.676;5.812;2023-02-11T03:19:32;103307.94;;;6.95;78.05
59104;BME280;51449;51.676;5.812;2023-02-11T03:21:58;103306.28;;;6.94;77.61
59104;BME280;51449;51.676;5.812;2023-02-11T03:24:34;103304.28;;;6.89;78.06
59104;BME280;51449;51.676;5.812;2023-02-11T03:32:41;103313.00;;;6.86;77.85
59104;BME280;51449;51.676;5.812;2023-02-11T03:35:14;103305.84;;;6.85;78.14
59104;BME280;51449;51.676;5.812;2023-02-11T03:37:51;103307.16;;;6.82;77.52
59104;BME280;51449;51.676;5.812;2023-02-11T03:40:19;103309.91;;;6.82;78.53
59104;BME280;51449;51.676;5.812;2023-02-11T03:42:50;103310.50;;;6.84;77.87
59104;BME280;51449;51.676;5.812;2023-02-11T03:45:21;103295.38;;;6.82;78.05
59104;BME280;51449;51.676;5.812;2023-02-11T03:47:52;103304.69;;;6.81;78.17
59104;BME280;51449;51.676;5.812;2023-02-11T03:50:19;103304.44;;;6.82;78.17
59104;BME280;51449;51.676;5.812;2023-02-11T03:52:42;103287.06;;;6.77;78.45
59104;BME280;51449;51.676;5.812;2023-02-11T03:55:12;103284.34;;;6.77;78.39
59104;BME280;51449;51.676;5.812;2023-02-11T03:57:37;103276.84;;;6.72;78.65
59104;BME280;51449;51.676;5.812;2023-02-11T03:59:59;103284.50;;;6.70;78.37
59104;BME280;51449;51.676;5.812;2023-02-11T04:02:35;103285.00;;;6.67;78.76
59104;BME280;51449;51.676;5.812;2023-02-11T04:04:58;103283.56;;;6.64;78.44
59104;BME280;51449;51.676;5.812;2023-02-11T04:07:20;103273.44;;;6.65;79.36
59104;BME280;51449;51.676;5.812;2023-02-11T04:09:42;103274.25;;;6.65;79.21
59104;BME280;51449;51.676;5.812;2023-02-11T04:12:04;103259.75;;;6.65;78.87
59104;BME280;51449;51.676;5.812;2023-02-11T04:14:26;103269.88;;;6.64;78.98
59104;BME280;51449;51.676;5.812;2023-02-11T04:16:47;103268.22;;;6.63;78.70
59104;BME280;51449;51.676;5.812;2023-02-11T04:19:09;103275.13;;;6.66;79.34
59104;BME280;51449;51.676;5.812;2023-02-11T04:21:31;103275.13;;;6.66;79.08
59104;BME280;51449;51.676;5.812;2023-02-11T04:23:52;103282.47;;;6.65;79.23
59104;BME280;51449;51.676;5.812;2023-02-11T04:26:14;103283.34;;;6.66;79.26
59104;BME280;51449;51.676;5.812;2023-02-11T04:28:35;103282.47;;;6.65;79.77
59104;BME280;51449;51.676;5.812;2023-02-11T04:30:57;103294.84;;;6.68;79.65
59104;BME280;51449;51.676;5.812;2023-02-11T04:33:19;103291.06;;;6.69;79.81
59104;BME280;51449;51.676;5.812;2023-02-11T04:35:40;103294.84;;;6.68;79.77
59104;BME280;51449;51.676;5.812;2023-02-11T04:38:02;103297.13;;;6.71;79.79
59104;BME280;51449;51.676;5.812;2023-02-11T04:40:24;103301.50;;;6.72;79.72
59104;BME280;51449;51.676;5.812;2023-02-11T04:42:45;103294.13;;;6.73;79.91
59104;BME280;51449;51.676;5.812;2023-02-11T04:45:07;103295.53;;;6.75;79.68
59104;BME280;51449;51.676;5.812;2023-02-11T04:47:29;103286.00;;;6.78;79.19
59104;BME280;51449;51.676;5.812;2023-02-11T04:49:51;103283.00;;;6.79;79.22
59104;BME280;51449;51.676;5.812;2023-02-11T04:52:13;103285.50;;;6.81;79.46
59104;BME280;51449;51.676;5.812;2023-02-11T04:54:34;103291.22;;;6.79;79.54
59104;BME280;51449;51.676;5.812;2023-02-11T04:56:56;103295.88;;;6.79;79.59
59104;BME280;51449;51.676;5.812;2023-02-11T04:59:17;103295.06;;;6.78;79.75
59104;BME280;51449;51.676;5.812;2023-02-11T05:01:39;103298.94;;;6.82;79.87
59104;BME280;51449;51.676;5.812;2023-02-11T05:04:01;103287.16;;;6.82;79.70
59104;BME280;51449;51.676;5.812;2023-02-11T05:06:23;103288.25;;;6.81;80.14
59104;BME280;51449;51.676;5.812;2023-02-11T05:08:45;103290.72;;;6.82;79.96
59104;BME280;51449;51.676;5.812;2023-02-11T05:11:13;103285.00;;;6.84;80.02
59104;BME280;51449;51.676;5.812;2023-02-11T05:13:37;103296.47;;;6.81;80.04
59104;BME280;51449;51.676;5.812;2023-02-11T05:15:59;103296.78;;;6.84;80.30
59104;BME280;51449;51.676;5.812;2023-02-11T05:18:22;103293.00;;;6.85;80.20
59104;BME280;51449;51.676;5.812;2023-02-11T05:20:44;103285.59;;;6.86;80.08
59104;BME280;51449;51.676;5.812;2023-02-11T05:23:06;103285.59;;;6.86;80.42
59104;BME280;51449;51.676;5.812;2023-02-11T05:25:28;103272.72;;;6.86;79.95
59104;BME280;51449;51.676;5.812;2023-02-11T05:27:49;103273.31;;;6.89;80.40
59104;BME280;51449;51.676;5.812;2023-02-11T05:30:11;103271.63;;;6.88;79.93
59104;BME280;51449;51.676;5.812;2023-02-11T05:32:33;103277.69;;;6.90;80.62
59104;BME280;51449;51.676;5.812;2023-02-11T05:34:55;103273.63;;;6.92;79.89
59104;BME280;51449;51.676;5.812;2023-02-11T05:37:16;103285.69;;;6.91;80.21
59104;BME280;51449;51.676;5.812;2023-02-11T05:39:38;103273.91;;;6.91;80.77
59104;BME280;51449;51.676;5.812;2023-02-11T05:42:00;103268.75;;;6.94;80.31
59104;BME280;51449;51.676;5.812;2023-02-11T05:44:22;103270.41;;;6.95;79.79
59104;BME280;51449;51.676;5.812;2023-02-11T05:46:43;103281.38;;;6.95;80.82
59104;BME280;51449;51.676;5.812;2023-02-11T05:49:05;103283.84;;;6.97;80.03
59104;BME280;51449;51.676;5.812;2023-02-11T05:51:27;103280.03;;;6.98;80.60
59104;BME280;51449;51.676;5.812;2023-02-11T05:53:48;103280.88;;;6.98;80.53
59104;BME280;51449;51.676;5.812;2023-02-11T05:56:10;103286.13;;;7.00;80.51
59104;BME280;51449;51.676;5.812;2023-02-11T05:58:32;103286.66;;;7.02;80.19
59104;BME280;51449;51.676;5.812;2023-02-11T06:00:54;103288.34;;;7.03;80.48
59104;BME280;51449;51.676;5.812;2023-02-11T06:03:16;103284.50;;;7.04;80.20
59104;BME280;51449;51.676;5.812;2023-02-11T06:05:38;103288.94;;;7.05;80.50
59104;BME280;51449;51.676;5.812;2023-02-11T06:08:02;103279.84;;;7.04;80.30
59104;BME280;51449;51.676;5.812;2023-02-11T06:10:24;103286.19;;;7.05;80.63
59104;BME280;51449;51.676;5.812;2023-02-11T06:12:46;103294.16;;;7.06;80.31
59104;BME280;51449;51.676;5.812;2023-02-11T06:15:08;103298.88;;;7.11;80.45
59104;BME280;51449;51.676;5.812;2023-02-11T06:17:29;103306.59;;;7.14;80.62
59104;BME280;51449;51.676;5.812;2023-02-11T06:19:54;103301.03;;;7.09;80.37
59104;BME280;51449;51.676;5.812;2023-02-11T06:22:15;103306.28;;;7.11;80.80
59104;BME280;51449;51.676;5.812;2023-02-11T06:24:37;103296.72;;;7.13;80.32
59104;BME280;51449;51.676;5.812;2023-02-11T06:27:19;103296.22;;;7.16;80.54
59104;BME280;51449;51.676;5.812;2023-02-11T06:29:41;103297.31;;;7.15;80.73
59104;BME280;51449;51.676;5.812;2023-02-11T06:32:03;103299.25;;;7.15;80.48
59104;BME280;51449;51.676;5.812;2023-02-11T06:34:25;103301.97;;;7.15;80.24
59104;BME280;51449;51.676;5.812;2023-02-11T06:36:47;103312.09;;;7.14;80.50
59104;BME280;51449;51.676;5.812;2023-02-11T06:39:10;103308.88;;;7.17;80.79
59104;BME280;51449;51.676;5.812;2023-02-11T06:41:33;103300.06;;;7.15;80.41
59104;BME280;51449;51.676;5.812;2023-02-11T06:43:55;103305.19;;;7.12;80.99
59104;BME280;51449;51.676;5.812;2023-02-11T06:46:16;103295.31;;;7.11;80.80
59104;BME280;51449;51.676;5.812;2023-02-11T06:48:38;103301.41;;;7.13;81.40
59104;BME280;51449;51.676;5.812;2023-02-11T06:51:05;103291.75;;;7.10;80.79
59104;BME280;51449;51.676;5.812;2023-02-11T06:53:31;103295.09;;;7.12;81.64
59104;BME280;51449;51.676;5.812;2023-02-11T06:55:55;103300.06;;;7.15;81.23
59104;BME280;51449;51.676;5.812;2023-02-11T06:58:22;103301.13;;;7.14;81.53
59104;BME280;51449;51.676;5.812;2023-02-11T07:00:43;103308.03;;;7.17;80.92
59104;BME280;51449;51.676;5.812;2023-02-11T07:03:05;103318.75;;;7.18;81.00
59104;BME280;51449;51.676;5.812;2023-02-11T07:05:27;103320.41;;;7.19;81.55
59104;BME280;51449;51.676;5.812;2023-02-11T07:07:48;103308.88;;;7.17;81.15
59104;BME280;51449;51.676;5.812;2023-02-11T07:10:10;103313.84;;;7.20;81.21
59104;BME280;51449;51.676;5.812;2023-02-11T07:12:32;103315.25;;;7.23;81.17
59104;BME280;51449;51.676;5.812;2023-02-11T07:14:55;103316.66;;;7.25;80.72
59104;BME280;51449;51.676;5.812;2023-02-11T07:17:17;103326.00;;;7.24;81.32
59104;BME280;51449;51.676;5.812;2023-02-11T07:19:38;103332.31;;;7.25;81.22
59104;BME280;51449;51.676;5.812;2023-02-11T07:22:00;103326.81;;;7.25;80.80
59104;BME280;51449;51.676;5.812;2023-02-11T07:24:22;103330.16;;;7.27;81.27
59104;BME280;51449;51.676;5.812;2023-02-11T07:26:43;103323.81;;;7.26;81.04
59104;BME280;51449;51.676;5.812;2023-02-11T07:29:05;103328.47;;;7.26;81.39
59104;BME280;51449;51.676;5.812;2023-02-11T07:31:28;103331.19;;;7.26;81.04
59104;BME280;51449;51.676;5.812;2023-02-11T07:33:53;103338.94;;;7.29;81.17
59104;BME280;51449;51.676;5.812;2023-02-11T07:36:16;103332.13;;;7.32;81.03
59104;BME280;51449;51.676;5.812;2023-02-11T07:38:38;103337.03;;;7.29;81.27
59104;BME280;51449;51.676;5.812;2023-02-11T07:41:02;103337.28;;;7.28;81.50
59104;BME280;51449;51.676;5.812;2023-02-11T07:43:28;103339.28;;;7.33;81.85
59104;BME280;51449;51.676;5.812;2023-02-11T07:45:51;103343.09;;;7.32;81.59
59104;BME280;51449;51.676;5.812;2023-02-11T07:48:13;103354.91;;;7.32;81.53
59104;BME280;51449;51.676;5.812;2023-02-11T07:50:35;103354.41;;;7.35;81.58
59104;BME280;51449;51.676;5.812;2023-02-11T07:52:56;103353.88;;;7.38;81.43
59104;BME280;51449;51.676;5.812;2023-02-11T07:55:18;103348.75;;;7.42;81.71
59104;BME280;51449;51.676;5.812;2023-02-11T07:57:39;103352.06;;;7.44;81.23
59104;BME280;51449;51.676;5.812;2023-02-11T08:00:02;103346.59;;;7.44;81.62
59104;BME280;51449;51.676;5.812;2023-02-11T08:02:30;103352.41;;;7.47;81.48
59104;BME280;51449;51.676;5.812;2023-02-11T08:04:52;103350.00;;;7.51;81.55
59104;BME280;51449;51.676;5.812;2023-02-11T08:07:15;103349.41;;;7.49;81.47
59104;BME280;51449;51.676;5.812;2023-02-11T08:09:38;103355.22;;;7.53;81.45
59104;BME280;51449;51.676;5.812;2023-02-11T08:11:59;103354.97;;;7.54;81.18
59104;BME280;51449;51.676;5.812;2023-02-11T08:14:21;103352.22;;;7.54;81.42
59104;BME280;51449;51.676;5.812;2023-02-11T08:16:45;103361.59;;;7.58;81.38
59104;BME280;51449;51.676;5.812;2023-02-11T08:19:11;103366.53;;;7.56;81.47
59104;BME280;51449;51.676;5.812;2023-02-11T08:21:35;103367.34;;;7.57;81.39
59104;BME280;51449;51.676;5.812;2023-02-11T08:23:56;103365.44;;;7.57;81.13
59104;BME280;51449;51.676;5.812;2023-02-11T08:26:27;103367.34;;;7.57;81.75
59104;BME280;51449;51.676;5.812;2023-02-11T08:28:51;103372.25;;;7.55;81.85
59104;BME280;51449;51.676;5.812;2023-02-11T08:31:15;103367.00;;;7.53;82.07
59104;BME280;51449;51.676;5.812;2023-02-11T08:33:39;103363.22;;;7.54;81.78
59104;BME280;51449;51.676;5.812;2023-02-11T08:36:08;103367.66;;;7.60;82.07
59104;BME280;51449;51.676;5.812;2023-02-11T08:38:34;103360.03;;;7.62;82.00
59104;BME280;51449;51.676;5.812;2023-02-11T08:40:58;103366.09;;;7.64;81.81
59104;BME280;51449;51.676;5.812;2023-02-11T08:43:21;103367.19;;;7.63;82.32
59104;BME280;51449;51.676;5.812;2023-02-11T08:45:43;103376.25;;;7.64;82.00
59104;BME280;51449;51.676;5.812;2023-02-11T08:48:05;103372.75;;;7.68;82.12
59104;BME280;51449;51.676;5.812;2023-02-11T08:50:27;103367.06;;;7.75;82.10
59104;BME280;51449;51.676;5.812;2023-02-11T08:52:48;103377.28;;;7.80;81.82
59104;BME280;51449;51.676;5.812;2023-02-11T08:55:12;103377.88;;;7.82;82.00
59104;BME280;51449;51.676;5.812;2023-02-11T08:57:33;103379.88;;;7.86;81.71
59104;BME280;51449;51.676;5.812;2023-02-11T08:59:55;103382.94;;;7.90;81.97
59104;BME280;51449;51.676;5.812;2023-02-11T09:02:17;103385.78;;;7.95;81.46
59104;BME280;51449;51.676;5.812;2023-02-11T09:04:39;103386.41;;;8.02;81.76
59104;BME280;51449;51.676;5.812;2023-02-11T09:07:02;103375.44;;;8.02;81.76
59104;BME280;51449;51.676;5.812;2023-02-11T09:09:25;103387.56;;;8.06;81.63
59104;BME280;51449;51.676;5.812;2023-02-11T09:11:46;103388.38;;;8.07;81.68
59104;BME280;51449;51.676;5.812;2023-02-11T09:14:16;103389.53;;;8.11;81.07
59104;BME280;51449;51.676;5.812;2023-02-11T09:16:42;103394.28;;;8.15;81.75
59104;BME280;51449;51.676;5.812;2023-02-11T09:19:04;103411.34;;;8.18;81.63
59104;BME280;51449;51.676;5.812;2023-02-11T09:21:26;103400.94;;;8.20;81.11
59104;BME280;51449;51.676;5.812;2023-02-11T09:23:49;103401.25;;;8.23;81.44
59104;BME280;51449;51.676;5.812;2023-02-11T09:26:23;103400.47;;;8.28;81.07
59104;BME280;51449;51.676;5.812;2023-02-11T09:28:52;103408.47;;;8.29;81.45
59104;BME280;51449;51.676;5.812;2023-02-11T09:31:17;103399.47;;;8.34;81.11
59104;BME280;51449;51.676;5.812;2023-02-11T09:33:46;103400.88;;;8.36;80.82
59104;BME280;51449;51.676;5.812;2023-02-11T09:36:09;103406.47;;;8.42;81.05
59104;BME280;51449;51.676;5.812;2023-02-11T09:38:31;103404.84;;;8.46;80.67
59104;BME280;51449;51.676;5.812;2023-02-11T09:40:53;103406.25;;;8.48;80.87
59104;BME280;51449;51.676;5.812;2023-02-11T09:43:18;103407.41;;;8.52;80.50
59104;BME280;51449;51.676;5.812;2023-02-11T09:45:42;103417.34;;;8.53;80.82
59104;BME280;51449;51.676;5.812;2023-02-11T09:48:12;103411.91;;;8.59;80.46
59104;BME280;51449;51.676;5.812;2023-02-11T09:50:39;103418.47;;;8.57;80.34
59104;BME280;51449;51.676;5.812;2023-02-11T09:53:17;103420.38;;;8.57;80.61
59104;BME280;51449;51.676;5.812;2023-02-11T09:55:47;103421.50;;;8.56;80.48
59104;BME280;51449;51.676;5.812;2023-02-11T09:58:24;103420.69;;;8.61;80.68
59104;BME280;51449;51.676;5.812;2023-02-11T10:01:03;103419.69;;;8.67;80.30
59104;BME280;51449;51.676;5.812;2023-02-11T10:06:41;103438.16;;;8.71;80.64
59104;BME280;51449;51.676;5.812;2023-02-11T10:15:13;103447.84;;;8.79;80.11
59104;BME280;51449;51.676;5.812;2023-02-11T10:20:48;103454.03;;;8.91;80.07
59104;BME280;51449;51.676;5.812;2023-02-11T10:23:26;103457.13;;;8.95;79.69
59104;BME280;51449;51.676;5.812;2023-02-11T10:25:55;103458.53;;;8.97;79.79
59104;BME280;51449;51.676;5.812;2023-02-11T10:28:22;103459.66;;;9.02;79.54
59104;BME280;51449;51.676;5.812;2023-02-11T10:31:00;103453.13;;;9.08;79.37
59104;BME280;51449;51.676;5.812;2023-02-11T10:33:46;103464.38;;;9.06;79.26
59104;BME280;51449;51.676;5.812;2023-02-11T10:36:17;103468.19;;;9.00;79.05
59104;BME280;51449;51.676;5.812;2023-02-11T10:38:39;103468.94;;;8.95;79.25
59104;BME280;51449;51.676;5.812;2023-02-11T10:41:01;103470.88;;;8.95;79.33
59104;BME280;51449;51.676;5.812;2023-02-11T10:43:26;103470.59;;;8.96;79.43
59104;BME280;51449;51.676;5.812;2023-02-11T10:45:52;103466.78;;;8.97;79.47
59104;BME280;51449;51.676;5.812;2023-02-11T10:48:44;103471.75;;;9.00;79.68
59104;BME280;51449;51.676;5.812;2023-02-11T10:51:24;103467.59;;;8.98;79.63
59104;BME280;51449;51.676;5.812;2023-02-11T10:54:16;103470.88;;;8.95;79.44
59104;BME280;51449;51.676;5.812;2023-02-11T10:56:47;103478.53;;;8.93;80.04
59104;BME280;51449;51.676;5.812;2023-02-11T10:59:27;103473.88;;;8.93;79.85
59104;BME280;51449;51.676;5.812;2023-02-11T11:02:00;103477.19;;;8.95;80.09
59104;BME280;51449;51.676;5.812;2023-02-11T11:04:42;103479.19;;;9.00;79.99
59104;BME280;51449;51.676;5.812;2023-02-11T11:07:29;103492.47;;;9.08;79.96
59104;BME280;51449;51.676;5.812;2023-02-11T11:10:00;103483.97;;;9.10;80.02
59104;BME280;51449;51.676;5.812;2023-02-11T11:12:31;103483.09;;;9.09;79.46
59104;BME280;51449;51.676;5.812;2023-02-11T11:17:31;103487.41;;;9.22;79.51
59104;BME280;51449;51.676;5.812;2023-02-11T11:19:52;103483.00;;;9.26;79.47
59104;BME280;51449;51.676;5.812;2023-02-11T11:22:21;103488.66;;;9.36;79.29
59104;BME280;51449;51.676;5.812;2023-02-11T11:24:44;103482.25;;;9.31;79.02
59104;BME280;51449;51.676;5.812;2023-02-11T11:27:16;103485.31;;;9.34;79.23
59104;BME280;51449;51.676;5.812;2023-02-11T11:29:51;103483.72;;;9.43;79.09
59104;BME280;51449;51.676;5.812;2023-02-11T11:34:53;103480.03;;;9.60;78.96
59104;BME280;51449;51.676;5.812;2023-02-11T11:37:26;103481.78;;;9.71;78.90
59104;BME280;51449;51.676;5.812;2023-02-11T11:40:07;103488.16;;;9.77;78.24
59104;BME280;51449;51.676;5.812;2023-02-11T11:42:43;103474.41;;;9.77;78.04
59104;BME280;51449;51.676;5.812;2023-02-11T11:47:42;103474.72;;;9.80;77.93
59104;BME280;51449;51.676;5.812;2023-02-11T11:50:33;103471.13;;;9.80;77.78
59104;BME280;51449;51.676;5.812;2023-02-11T11:53:15;103473.63;;;9.81;77.76
59104;BME280;51449;51.676;5.812;2023-02-11T11:55:58;103469.25;;;9.85;77.73
59104;BME280;51449;51.676;5.812;2023-02-11T11:58:24;103464.56;;;9.86;77.50
59104;BME280;51449;51.676;5.812;2023-02-11T12:18:33;103465.06;;;10.68;75.60
59104;BME280;51449;51.676;5.812;2023-02-11T12:24:18;103460.38;;;10.68;74.94
59104;BME280;51449;51.676;5.812;2023-02-11T12:27:03;103454.88;;;10.68;74.86
59104;BME280;51449;51.676;5.812;2023-02-11T12:30:03;103446.03;;;10.66;74.89
59104;BME280;51449;51.676;5.812;2023-02-11T12:32:58;103446.06;;;10.71;74.48
59104;BME280;51449;51.676;5.812;2023-02-11T12:35:53;103448.25;;;10.75;74.46
59104;BME280;51449;51.676;5.812;2023-02-11T12:38:49;103443.88;;;10.84;74.17
59104;BME280;51449;51.676;5.812;2023-02-11T12:47:50;103431.25;;;11.03;73.47
59104;BME280;51449;51.676;5.812;2023-02-11T12:56:04;103440.66;;;11.12;72.68
59104;BME280;51449;51.676;5.812;2023-02-11T12:58:34;103433.75;;;11.10;72.50
59104;BME280;51449;51.676;5.812;2023-02-11T13:01:19;103427.13;;;11.06;72.59
59104;BME280;51449;51.676;5.812;2023-02-11T13:03:56;103437.06;;;11.12;72.61
59104;BME280;51449;51.676;5.812;2023-02-11T13:06:34;103441.75;;;11.17;72.27
59104;BME280;51449;51.676;5.812;2023-02-11T13:09:05;103443.13;;;11.19;72.36
59104;BME280;51449;51.676;5.812;2023-02-11T13:11:38;103448.94;;;11.23;72.45
59104;BME280;51449;51.676;5.812;2023-02-11T13:14:08;103452.53;;;11.28;72.33
59104;BME280;51449;51.676;5.812;2023-02-11T13:16:42;103440.66;;;11.38;72.51
59104;BME280;51449;51.676;5.812;2023-02-11T13:24:42;103442.34;;;11.49;70.52
59104;BME280;51449;51.676;5.812;2023-02-11T13:27:18;103436.00;;;11.49;70.17
59104;BME280;51449;51.676;5.812;2023-02-11T13:30:34;103439.03;;;11.47;69.85
59104;BME280;51449;51.676;5.812;2023-02-11T13:33:03;103436.28;;;11.47;70.67
59104;BME280;51449;51.676;5.812;2023-02-11T13:35:39;103432.94;;;11.50;70.43
59104;BME280;51449;51.676;5.812;2023-02-11T13:38:22;103428.25;;;11.51;70.41
59104;BME280;51449;51.676;5.812;2023-02-11T13:41:04;103429.94;;;11.52;70.83
59104;BME280;51449;51.676;5.812;2023-02-11T13:43:35;103436.56;;;11.56;70.67
59104;BME280;51449;51.676;5.812;2023-02-11T13:46:09;103430.72;;;11.63;71.02
59104;BME280;51449;51.676;5.812;2023-02-11T13:48:38;103427.97;;;11.63;70.57
59104;BME280;51449;51.676;5.812;2023-02-11T13:51:08;103429.91;;;11.62;70.68
59104;BME280;51449;51.676;5.812;2023-02-11T13:53:51;103431.31;;;11.60;70.37
59104;BME280;51449;51.676;5.812;2023-02-11T13:58:58;103434.34;;;11.63;70.27
59104;BME280;51449;51.676;5.812;2023-02-11T14:04:33;103446.78;;;11.71;69.98
59104;BME280;51449;51.676;5.812;2023-02-11T14:13:18;103433.78;;;11.71;70.02
59104;BME280;51449;51.676;5.812;2023-02-11T14:15:45;103432.09;;;11.70;70.09
59104;BME280;51449;51.676;5.812;2023-02-11T14:21:18;103449.53;;;11.71;69.56
59104;BME280;51449;51.676;5.812;2023-02-11T14:23:44;103448.41;;;11.67;68.99
59104;BME280;51449;51.676;5.812;2023-02-11T14:28:41;103447.59;;;11.61;69.57
59104;BME280;51449;51.676;5.812;2023-02-11T14:31:09;103443.72;;;11.62;69.57
59104;BME280;51449;51.676;5.812;2023-02-11T14:36:44;103442.06;;;11.66;69.05
59104;BME280;51449;51.676;5.812;2023-02-11T14:39:27;103437.94;;;11.64;69.49